메인 페이지
METAR-TAF:

METAR-TAF

공항 :

더뷰크, 아이오와, 미국

위도: 42-23-52N, 경도: 090-42-13W, 고도: 328m

현재 날씨관측

예보는 29분 전, 13:53시(UTC)에 발표되었습니다.
무풍
온도 13°C
습도 100%
기압 1008 hPa
시정: 6.4km
고도 900ft 상공 흐림
박무

METAR: KDBQ 071353Z 00000KT 4SM BR OVC009 13/13 A2976 RMK AO2 SLP078 T01330133

시각: 09:22 (14:22 UTC)

예보

예보는 1 시간 14분 전, 13:08시(UTC)에 발표되었습니다.
예보 대상 시간: 07일 13시부터 08일 12시까지 (UTC)
5kt
시정: 6.4km
맑음
박무
일시적
07일 13시부터 07일 15시까지 (UTC)
시정: 1.6km
고도 1000ft 상공 흐림
박무
07일 1500시부터 (UTC)
남서12kt, 순간 최대 풍속 20kt
시정: 10km
고도 3500ft 상공 구름 보통
확률 30%
07일 22시부터 07일 24시까지 (UTC)
시정: 8.0km
고도 2500ft 상공 구름 많음, 적란운.
뇌우, 약한비
08일 0000시부터 (UTC)
북북서6kt
시정: 10km
맑음

TAF: KDBQ 071308Z 0713/0812 10005KT 4SM BR SKC TEMPO 0713/0715 1SM BR OVC010 FM071500 22012G20KT P6SM SCT035 PROB30 0722/0724 5SM -TSRA BKN025CB FM080000 33006KT P6SM SKC

4,000개 이상의 공항 관측 자료 및 예보 (METAR 및 TAF 보고).

지도상에서 검색 가능한 기상관측소가 노란 점과 빨간 점으로 표시되어 있습니다.

기상관측소 명을 보려면 표시 위로 마우스를 이동하세요.

날씨 관측과 예보를 보려면 클릭하세요.

지도 변경 : 확대하려면 엑스 표시가 있는 녹색 버튼, 축소하려면 빼기 표시가 있는 녹색 버튼, 다음 페이지의 지도를 보려면 녹색 화살표를 클릭하세요.


METAR-TAF: